Terminal Aerodrome Forecast
Issued by NWS

Home | Current Version | Previous Version | Text Only | Print | Product List | Glossary On
Versions: 1 2 3 4 5 6 7 8 9 10 11 12 13 14 15
000
FTUS41 KBTV 211120
TAFMSS
TAF
KMSS 211120Z 2112/2212 23007KT P6SM -SHRA OVC040
      TEMPO 2112/2116 5SM -SHRA BR OVC025
     FM211600 24010G18KT P6SM OVC030
     FM211800 24015G25KT P6SM SCT050
     FM220100 23009KT P6SM FEW150
     FM221100 21006KT P6SM BKN070=

USA.gov is the U.S. government's official web portal to all federal, state and local government web resources and services.